Avenue, Maryland
Current Conditions -  °F | °C
As of 4:36 AM on Saturday 29 Nov 2014 (Local Time) from K2W6 Reporting Station
Broken Clouds Broken Clouds  
Wind Chill: 28°   Ceiling: 7500
Heat Index: 28°   Visibility: 10mi
Dew Point: 25°   Wind: 0mph
Humidity: 86%   Direction: NA
Pressure: 30.32"   Gusts: NA
Location:  38.26°N, 76.77°W
Report Text: K2W6 290936Z AUTO 00000KT 10SM BKN075 M02/M04 A3032 RMK AO1
Loading
Personal Weather Stations






























Interactive Weather Map New forecast layout! Learn more

10-Day Weather Forecast

Advertisements
Track Severe Weather on mobile